Time;durP1;ratioP1;P1;durP2;ratioP2;P2;SDS_P1;SDS_P2;PMS_P1;PMS_P2;Temp;Humidity;BMP_temperature;BMP_pressure;BME280_temperature;BME280_humidity;BME280_pressure;Samples;Min_cycle;Max_cycle;Signal;HPM_P1;HPM_P2
2022/01/23 12:46:46;;;;;;;6.72;5.85;;;;;;;5.93;72.32;100375.14;1778995;78;23331;-55
2022/01/23 12:49:26;;;;;;;9.28;5.90;;;;;;;4.58;68.35;100378.58;1755820;80;21390;-53
2022/01/23 12:51:59;;;;;;;7.62;5.75;;;;;;;4.63;68.77;100381.14;1763522;80;22254;-54
2022/01/23 12:54:27;;;;;;;10.28;6.47;;;;;;;4.65;68.23;100385.91;1760862;80;21427;-54
2022/01/23 12:56:54;;;;;;;7.42;6.33;;;;;;;4.62;68.00;100390.70;1763555;80;21371;-53
2022/01/23 12:59:30;;;;;;;6.42;5.22;;;;;;;4.58;68.86;100402.47;1759116;80;21553;-54
2022/01/23 13:02:01;;;;;;;8.60;6.37;;;;;;;4.74;68.22;100405.83;1765421;80;21410;-54
2022/01/23 13:04:23;;;;;;;7.85;5.72;;;;;;;4.78;68.24;100409.69;1760304;80;22716;-54
2022/01/23 13:12:13;;;;;;;7.28;5.60;;;;;;;4.61;66.79;100416.76;1773170;80;21518;-54
2022/01/23 13:18:07;;;;;;;7.25;6.15;;;;;;;4.68;67.90;100428.43;1774256;80;22360;-55
2022/01/23 13:31:39;;;;;;;6.72;5.83;;;;;;;4.33;65.70;100458.55;1767411;80;22313;-57
2022/01/23 13:34:01;;;;;;;7.90;5.58;;;;;;;4.20;65.70;100463.39;1766259;80;21049;-55
2022/01/23 13:36:28;;;;;;;7.87;6.10;;;;;;;4.13;66.15;100476.02;1768434;80;21430;-55
2022/01/23 13:38:55;;;;;;;8.10;5.87;;;;;;;4.10;66.42;100478.17;1738269;80;21609;-54
2022/01/23 13:41:26;;;;;;;6.90;6.20;;;;;;;4.04;65.85;100484.70;1771126;80;21511;-54
2022/01/23 13:52:00;;;;;;;8.10;6.05;;;;;;;3.63;68.53;100509.05;1760752;78;21557;-54
2022/01/23 13:59:55;;;;;;;9.03;6.50;;;;;;;3.66;68.53;100512.95;1769257;80;21437;-54
2022/01/23 14:02:23;;;;;;;7.90;6.30;;;;;;;3.66;68.73;100510.36;1771231;80;21469;-53
2022/01/23 14:04:56;;;;;;;8.70;6.50;;;;;;;3.64;67.57;100519.89;1755224;80;21503;-54
2022/01/23 14:07:25;;;;;;;9.18;5.78;;;;;;;3.53;67.71;100512.53;1753472;80;21423;-54
2022/01/23 14:09:53;;;;;;;7.10;6.28;;;;;;;3.45;67.66;100533.34;1765490;80;22761;-54
2022/01/23 14:12:19;;;;;;;;;;;;;;;3.35;68.01;100526.38;1774816;80;21430;-54
2022/01/23 14:14:57;;;;;;;8.78;6.45;;;;;;;3.27;68.00;100539.37;1762591;80;20456;-53
2022/01/23 14:17:25;;;;;;;10.32;7.15;;;;;;;3.19;68.41;100541.10;1761499;80;21455;-54
2022/01/23 14:19:57;;;;;;;8.15;6.08;;;;;;;3.22;68.71;100543.27;1769187;80;21569;-54
2022/01/23 14:22:28;;;;;;;9.50;6.65;;;;;;;3.27;68.46;100538.07;1756264;80;22466;-54
2022/01/23 14:25:10;;;;;;;8.90;6.80;;;;;;;3.25;68.59;100546.30;1750081;80;21359;-55
2022/01/23 14:27:37;;;;;;;11.97;7.10;;;;;;;3.19;68.33;100535.46;1757021;80;21430;-53
2022/01/23 14:30:07;;;;;;;9.83;6.95;;;;;;;3.26;69.77;100533.75;1770404;80;20962;-55
2022/01/23 14:32:46;;;;;;;11.40;6.75;;;;;;;3.30;70.23;100539.38;1750496;80;20946;-57
2022/01/23 14:35:28;;;;;;;7.08;6.20;;;;;;;3.30;69.30;100540.24;1748869;80;22377;-55
2022/01/23 14:37:56;;;;;;;8.37;5.97;;;;;;;3.32;69.25;100554.55;1749968;80;21480;-55
2022/01/23 14:40:25;;;;;;;8.45;6.45;;;;;;;3.26;68.83;100564.95;1754531;80;21448;-54
2022/01/23 14:43:00;;;;;;;7.53;5.87;;;;;;;3.20;68.79;100562.31;1750751;80;21578;-54
2022/01/23 14:45:27;;;;;;;8.80;6.33;;;;;;;3.12;68.68;100570.95;1749000;80;21407;-54
2022/01/23 14:47:54;;;;;;;8.30;6.12;;;;;;;3.05;68.82;100565.33;1732127;81;22387;-54
2022/01/23 14:50:23;;;;;;;12.45;8.45;;;;;;;3.08;68.21;100578.31;1713500;82;21439;-54
2022/01/23 14:52:50;;;;;;;12.35;8.65;;;;;;;2.97;68.32;100578.70;1724289;80;21536;-55
2022/01/23 14:55:17;;;;;;;10.20;7.70;;;;;;;2.97;67.84;100581.75;1724338;81;21828;-55
2022/01/23 14:57:45;;;;;;;23.50;14.20;;;;;;;2.95;68.82;100586.93;1714074;81;21065;-54
2022/01/23 15:00:12;;;;;;;9.95;8.10;;;;;;;2.92;69.10;100591.70;1722112;82;22356;-54
2022/01/23 15:02:42;;;;;;;10.23;6.58;;;;;;;2.92;69.51;100598.19;1727435;82;21519;-54
2022/01/23 15:05:09;;;;;;;9.33;6.92;;;;;;;2.97;69.66;100602.09;1720521;82;20886;-54
2022/01/23 15:07:36;;;;;;;9.38;6.40;;;;;;;2.96;69.36;100599.08;1712454;82;21443;-54
2022/01/23 15:10:03;;;;;;;;;;;;;;;2.92;69.68;100607.28;1725390;82;21474;-53
2022/01/23 15:12:31;;;;;;;9.53;6.78;;;;;;;2.96;70.17;100605.57;1734276;81;21395;-54
2022/01/23 15:14:58;;;;;;;15.88;8.95;;;;;;;3.00;70.37;100616.41;1721868;82;21522;-54
2022/01/23 15:17:26;;;;;;;9.40;6.87;;;;;;;3.02;70.80;100614.67;1715930;82;21549;-54
2022/01/23 15:19:53;;;;;;;;;;;;;;;3.00;69.31;100615.11;1711767;82;21567;-53
2022/01/23 15:22:20;;;;;;;8.35;6.12;;;;;;;3.02;69.78;100621.17;1726660;82;20438;-55
2022/01/23 15:24:47;;;;;;;16.12;8.25;;;;;;;3.06;69.56;100620.31;1729637;82;22335;-54
2022/01/23 15:27:14;;;;;;;18.50;12.00;;;;;;;3.07;70.00;100627.67;1725743;81;21427;-54
2022/01/23 15:29:41;;;;;;;14.87;9.75;;;;;;;3.03;69.72;100629.42;1725344;82;21517;-54
2022/01/23 15:32:08;;;;;;;10.78;8.20;;;;;;;3.09;70.21;100640.27;1719187;81;21398;-54
2022/01/23 15:34:36;;;;;;;15.35;8.93;;;;;;;3.12;69.62;100632.02;1640143;85;21618;-55
2022/01/23 15:37:03;;;;;;;35.25;18.52;;;;;;;3.06;68.94;100629.41;1716696;81;21753;-54
2022/01/23 15:39:31;;;;;;;13.95;8.90;;;;;;;3.02;69.19;100634.16;1720617;81;21418;-54
2022/01/23 15:41:58;;;;;;;12.47;7.95;;;;;;;3.00;69.31;100641.53;1715310;82;21558;-54
2022/01/23 15:44:24;;;;;;;13.18;9.30;;;;;;;3.02;68.93;100647.16;1720537;82;21355;-54
2022/01/23 15:46:51;;;;;;;11.70;7.90;;;;;;;2.96;69.23;100654.93;1743093;80;21439;-54
2022/01/23 15:49:18;;;;;;;16.27;9.18;;;;;;;2.98;69.41;100663.59;1748505;80;22562;-54
2022/01/23 15:51:47;;;;;;;11.55;7.30;;;;;;;3.03;69.75;100665.80;1746186;80;21465;-54
2022/01/23 15:54:18;;;;;;;22.35;12.20;;;;;;;3.07;69.36;100676.63;1745321;80;21371;-54
2022/01/23 15:56:48;;;;;;;16.57;10.45;;;;;;;3.05;69.20;100683.96;1748795;80;21017;-56
2022/01/23 15:59:15;;;;;;;10.25;7.70;;;;;;;3.05;69.46;100687.86;1752415;80;21538;-55
2022/01/23 16:01:43;;;;;;;9.08;6.95;;;;;;;3.08;69.31;100693.09;1750417;80;22562;-56
2022/01/23 16:04:10;;;;;;;11.90;7.87;;;;;;;3.09;69.17;100695.70;1695941;83;21507;-56
2022/01/23 16:06:36;;;;;;;9.68;6.97;;;;;;;3.12;68.49;100698.73;1752354;80;21065;-56
2022/01/23 16:09:02;;;;;;;9.45;6.70;;;;;;;3.02;67.78;100696.96;1748866;80;21372;-56
2022/01/23 16:11:29;;;;;;;10.53;7.83;;;;;;;3.00;68.57;100707.78;1749904;80;21478;-56
2022/01/23 16:13:55;;;;;;;15.90;8.90;;;;;;;3.06;68.91;100711.27;1747349;80;22295;-56
2022/01/23 16:16:21;;;;;;;13.08;8.20;;;;;;;3.11;68.47;100716.50;1754661;79;20903;-54
2022/01/23 16:18:48;;;;;;;10.78;8.03;;;;;;;3.07;67.90;100718.21;1713885;81;21506;-54
2022/01/23 16:21:15;;;;;;;13.48;8.83;;;;;;;3.10;68.50;100721.24;1739970;80;21497;-55
2022/01/23 16:23:41;;;;;;;13.20;7.65;;;;;;;3.09;67.44;100720.38;1742207;80;21080;-54
2022/01/23 16:26:08;;;;;;;9.95;7.85;;;;;;;3.04;67.88;100735.08;1748645;80;22527;-54
2022/01/23 16:28:34;;;;;;;10.60;7.95;;;;;;;3.01;68.26;100735.48;1752268;80;21435;-54
2022/01/23 16:31:01;;;;;;;11.00;7.55;;;;;;;3.02;68.20;100740.70;1747926;80;21507;-54
2022/01/23 16:33:28;;;;;;;24.20;7.00;;;;;;;3.03;68.11;100744.16;1751474;80;21530;-54
2022/01/23 16:35:55;;;;;;;9.10;6.40;;;;;;;3.01;67.55;100744.58;1753586;80;21445;-54
2022/01/23 16:38:22;;;;;;;7.67;6.08;;;;;;;2.95;67.80;100756.24;1744646;80;21566;-56
2022/01/23 16:40:50;;;;;;;9.90;6.22;;;;;;;2.92;68.32;100758.41;1752513;80;21478;-56
2022/01/23 16:43:17;;;;;;;9.43;6.37;;;;;;;3.00;68.44;100762.34;1759413;80;21510;-56
2022/01/23 16:45:43;;;;;;;8.18;6.60;;;;;;;3.06;68.84;100760.63;1693945;83;20938;-56
2022/01/23 16:48:10;;;;;;;11.20;6.62;;;;;;;3.11;67.62;100768.03;1727121;81;21467;-55
2022/01/23 16:50:38;;;;;;;8.13;6.25;;;;;;;3.02;67.94;100769.28;1756476;80;21576;-56
2022/01/23 16:53:05;;;;;;;8.35;6.10;;;;;;;2.95;67.82;100772.69;1763581;79;21329;-55
2022/01/23 16:55:32;;;;;;;9.00;5.97;;;;;;;2.95;67.50;100778.33;1759269;79;21391;-56
2022/01/23 16:57:58;;;;;;;8.30;6.28;;;;;;;2.83;67.78;100786.91;1759017;79;21438;-56
2022/01/23 17:00:25;;;;;;;8.78;5.62;;;;;;;2.93;67.25;100792.59;1758591;79;21387;-54
2022/01/23 17:02:51;;;;;;;8.55;6.00;;;;;;;2.92;66.71;100792.17;1755162;79;22396;-55
2022/01/23 17:05:18;;;;;;;6.40;5.17;;;;;;;2.86;66.96;100797.30;1756788;79;21544;-55
2022/01/23 17:07:44;;;;;;;6.15;4.80;;;;;;;2.89;67.30;100798.64;1749563;79;21441;-55
2022/01/23 17:10:11;;;;;;;6.65;5.15;;;;;;;2.89;67.24;100794.74;1760364;79;21514;-56
2022/01/23 17:12:37;;;;;;;8.18;5.85;;;;;;;2.91;67.40;100807.31;1758007;79;21443;-55
2022/01/23 17:15:05;;;;;;;9.20;6.53;;;;;;;2.92;67.61;100816.42;1754113;80;22331;-55
2022/01/23 17:17:31;;;;;;;;;;;;;;;2.99;66.84;100819.91;1754603;80;21475;-56
2022/01/23 17:19:58;;;;;;;9.35;6.67;;;;;;;2.78;67.20;100818.47;1761910;80;20459;-55
2022/01/23 17:22:24;;;;;;;10.98;7.05;;;;;;;2.70;66.26;100824.91;1763476;80;21453;-55
2022/01/23 17:24:50;;;;;;;9.35;6.95;;;;;;;2.60;66.14;100825.66;1753262;80;21437;-55
2022/01/23 17:27:17;;;;;;;10.28;7.33;;;;;;;2.51;66.03;100833.83;1751066;80;21396;-55
2022/01/23 17:29:44;;;;;;;12.03;7.57;;;;;;;2.48;66.58;100827.30;1763553;80;21033;-54
2022/01/23 17:32:12;;;;;;;9.45;7.37;;;;;;;2.42;66.61;100829.84;1701327;83;21394;-54
2022/01/23 17:34:40;;;;;;;11.53;8.45;;;;;;;2.47;67.13;100820.81;1759383;80;21476;-54
2022/01/23 17:37:06;;;;;;;10.28;7.62;;;;;;;2.42;67.11;100822.49;1766109;80;21585;-55
2022/01/23 17:39:34;;;;;;;10.58;7.92;;;;;;;2.44;67.14;100834.63;1764876;80;21451;-54
2022/01/23 17:42:01;;;;;;;11.78;7.28;;;;;;;2.39;66.21;100828.94;1759531;80;21454;-54
2022/01/23 17:44:29;;;;;;;10.35;7.92;;;;;;;2.36;66.80;100825.04;1765536;80;20969;-54
2022/01/23 17:47:08;;;;;;;11.10;7.50;;;;;;;2.39;66.95;100834.13;1750493;80;21493;-56
2022/01/23 17:49:38;;;;;;;7.62;6.17;;;;;;;2.40;66.59;100835.89;1750032;80;21491;-55
2022/01/23 17:51:52;;;;;;;9.13;6.80;;;;;;;2.45;67.19;100839.38;1741399;80;22580;-55
2022/01/23 17:54:18;;;;;;;10.28;6.78;;;;;;;2.42;66.93;100841.53;1756435;80;21511;-55
2022/01/23 17:56:46;;;;;;;8.90;6.22;;;;;;;2.39;67.23;100834.13;1745377;80;21613;-56
2022/01/23 17:59:12;;;;;;;11.93;7.00;;;;;;;2.35;66.91;100837.13;1752511;80;21587;-56
2022/01/23 18:01:40;;;;;;;8.23;5.95;;;;;;;2.36;65.76;100845.37;1753468;80;21500;-55
2022/01/23 18:04:09;;;;;;;8.63;6.40;;;;;;;2.27;66.46;100838.34;1740859;80;22353;-54
2022/01/23 18:06:39;;;;;;;7.67;6.10;;;;;;;2.27;66.95;100832.30;1750580;80;21355;-54
2022/01/23 18:09:11;;;;;;;10.35;6.30;;;;;;;2.29;66.82;100830.14;1748132;80;21437;-53
2022/01/23 18:11:37;;;;;;;7.62;6.30;;;;;;;2.29;67.10;100826.25;1752839;80;21439;-54
2022/01/23 18:14:09;;;;;;;7.95;5.97;;;;;;;2.35;66.94;100828.03;1746192;80;21324;-54
2022/01/23 18:16:33;;;;;;;9.53;6.78;;;;;;;2.32;67.12;100840.57;1744113;80;21794;-54
2022/01/23 18:18:59;;;;;;;11.03;6.62;;;;;;;2.32;66.79;100840.57;1749103;80;21419;-54
2022/01/23 18:21:26;;;;;;;10.03;6.80;;;;;;;2.36;67.22;100844.51;1742450;80;21430;-55
2022/01/23 18:23:52;;;;;;;9.23;7.10;;;;;;;2.42;67.40;100843.27;1750545;80;21542;-55
2022/01/23 18:26:19;;;;;;;12.33;7.37;;;;;;;2.43;66.90;100854.07;1749499;80;21549;-54
2022/01/23 18:28:46;;;;;;;9.75;7.60;;;;;;;2.39;66.95;100853.60;1754743;80;22653;-54
2022/01/23 18:31:13;;;;;;;9.98;7.40;;;;;;;2.45;67.58;100861.44;1740011;80;21583;-54
2022/01/23 18:33:39;;;;;;;10.23;6.87;;;;;;;2.45;66.34;100862.73;1710254;81;21529;-55
2022/01/23 18:36:06;;;;;;;9.28;6.67;;;;;;;2.46;66.21;100858.87;1743017;80;21437;-54
2022/01/23 18:38:33;;;;;;;10.68;6.78;;;;;;;2.41;66.07;100863.57;1716057;82;21563;-54
2022/01/23 18:41:00;;;;;;;12.15;7.12;;;;;;;2.40;66.27;100874.83;1756139;80;22658;-55
2022/01/23 18:43:27;;;;;;;9.05;5.45;;;;;;;2.39;66.82;100870.47;1755367;80;21351;-55
2022/01/23 18:45:54;;;;;;;10.72;7.08;;;;;;;2.37;66.58;100874.78;1750587;80;21496;-54
2022/01/23 18:48:21;;;;;;;10.80;6.95;;;;;;;2.38;66.61;100879.13;1754161;80;21564;-55
2022/01/23 18:50:55;;;;;;;9.25;6.78;;;;;;;2.37;66.30;100878.23;1749868;80;21446;-54
2022/01/23 18:53:24;;;;;;;8.33;6.45;;;;;;;2.36;66.59;100888.20;1756080;80;22336;-54
2022/01/23 18:55:47;;;;;;;11.93;7.42;;;;;;;2.38;66.90;100888.22;1760023;80;20909;-54
2022/01/23 18:58:18;;;;;;;9.43;6.78;;;;;;;2.45;66.63;100896.09;1752135;80;21497;-54
2022/01/23 19:00:47;;;;;;;8.68;6.37;;;;;;;2.51;66.84;100890.95;1758938;80;21509;-54
2022/01/23 19:03:21;;;;;;;9.65;6.97;;;;;;;2.58;66.63;100897.48;1753342;80;21507;-54
2022/01/23 19:05:39;;;;;;;10.80;7.15;;;;;;;2.60;66.31;100890.18;1757552;80;22553;-54
2022/01/23 19:08:18;;;;;;;9.83;6.97;;;;;;;2.59;66.00;100884.96;1716778;82;21483;-55
2022/01/23 19:10:39;;;;;;;13.00;7.47;;;;;;;2.50;66.07;100894.82;1758978;80;21521;-55
2022/01/23 19:13:11;;;;;;;8.20;6.55;;;;;;;2.53;65.58;100894.86;1760381;80;21507;-55
2022/01/23 19:15:40;;;;;;;9.03;6.95;;;;;;;2.55;65.66;100895.74;1758495;80;21521;-55
2022/01/23 19:18:07;;;;;;;8.43;6.45;;;;;;;2.57;64.67;100885.38;1756014;80;21418;-55
2022/01/23 19:20:33;;;;;;;9.47;7.00;;;;;;;2.51;67.90;100888.34;1760270;80;21359;-55
2022/01/23 19:23:02;;;;;;;9.23;6.22;;;;;;;2.53;64.94;100892.27;1762094;80;27431;-55
2022/01/23 19:25:30;;;;;;;12.98;7.20;;;;;;;2.52;64.89;100888.81;1762520;80;21544;-55
2022/01/23 19:28:01;;;;;;;10.70;7.92;;;;;;;2.56;64.60;100903.09;1759577;79;21598;-55
2022/01/23 19:30:25;;;;;;;9.98;7.33;;;;;;;2.51;65.20;100903.92;1765376;80;22547;-55
2022/01/23 19:32:53;;;;;;;11.68;7.17;;;;;;;2.57;65.51;100908.31;1753130;80;21533;-53
2022/01/23 19:35:23;;;;;;;9.58;7.08;;;;;;;2.57;65.33;100907.45;1759346;80;21013;-54
2022/01/23 19:37:52;;;;;;;10.48;7.03;;;;;;;2.50;65.52;100906.50;1702060;83;21562;-54
2022/01/23 19:40:25;;;;;;;9.20;7.47;;;;;;;2.50;64.85;100903.47;1753364;80;21486;-55
2022/01/23 19:45:23;;;;;;;9.43;6.58;;;;;;;2.51;65.01;100905.23;1758260;80;21656;-55
2022/01/23 19:48:00;;;;;;;;;;;;;;;2.44;65.01;100907.31;1704661;83;21071;-55
2022/01/23 19:50:18;;;;;;;10.40;6.47;;;;;;;2.47;64.90;100908.66;1692793;83;21070;-54
2022/01/23 19:52:44;;;;;;;9.33;6.58;;;;;;;2.39;65.03;100908.97;1756990;80;21498;-55
2022/01/23 19:55:11;;;;;;;12.18;7.65;;;;;;;2.49;65.15;100921.22;1771534;80;22674;-55
2022/01/23 19:57:37;;;;;;;10.47;7.47;;;;;;;2.50;64.98;100920.34;1763762;80;21486;-54
2022/01/23 20:00:07;;;;;;;11.70;7.80;;;;;;;2.49;64.84;100922.95;1770394;80;21466;-55
2022/01/23 20:02:35;;;;;;;10.53;7.10;;;;;;;2.48;64.85;100920.76;1748433;80;21459;-55
2022/01/23 20:05:02;;;;;;;12.13;7.97;;;;;;;2.53;65.15;100924.28;1769322;80;21406;-56
2022/01/23 20:07:30;;;;;;;13.05;8.05;;;;;;;2.65;64.85;100928.72;1749169;80;22317;-57
2022/01/23 20:10:10;;;;;;;10.18;7.40;;;;;;;2.65;64.75;100931.32;1760482;80;21576;-55
2022/01/23 20:12:44;;;;;;;10.10;7.35;;;;;;;2.69;64.44;100927.92;1751911;80;20980;-56
2022/01/23 20:15:16;;;;;;;12.15;7.97;;;;;;;2.77;64.40;100931.89;1755825;79;21387;-55
2022/01/23 20:17:42;;;;;;;12.07;8.43;;;;;;;2.84;64.39;100942.76;1757320;79;21578;-56
2022/01/23 20:20:09;;;;;;;13.83;8.25;;;;;;;2.90;64.32;100940.64;1754388;80;22373;-54
2022/01/23 20:22:36;;;;;;;8.75;6.47;;;;;;;2.87;63.94;100937.61;1761726;79;21454;-54
2022/01/23 20:25:03;;;;;;;11.85;7.53;;;;;;;2.88;63.58;100935.87;1736973;80;21441;-54
2022/01/23 20:27:30;;;;;;;11.53;7.72;;;;;;;2.86;63.38;100943.67;1765660;80;21069;-54
2022/01/23 20:29:57;;;;;;;12.45;7.20;;;;;;;2.90;63.91;100949.74;1770428;80;21442;-55
2022/01/23 20:32:23;;;;;;;9.00;6.78;;;;;;;2.88;64.29;100950.16;1752344;80;22326;-54
2022/01/23 20:34:50;;;;;;;10.45;7.35;;;;;;;2.89;63.91;100949.31;1759135;80;20967;-54
2022/01/23 20:37:20;;;;;;;11.85;7.95;;;;;;;2.90;63.96;100959.73;1756139;80;20963;-54
2022/01/23 20:39:45;;;;;;;11.50;7.15;;;;;;;2.81;64.07;100958.34;1753973;80;21408;-54
2022/01/23 20:42:12;;;;;;;11.22;7.22;;;;;;;2.73;63.87;100955.66;1747630;80;21382;-54
2022/01/23 20:44:39;;;;;;;11.37;8.23;;;;;;;2.75;64.63;100956.98;1750820;80;22374;-54
2022/01/23 20:47:06;;;;;;;10.95;7.10;;;;;;;2.84;64.58;100954.89;1753985;80;21513;-53
2022/01/23 20:49:35;;;;;;;10.95;7.78;;;;;;;2.87;64.08;100962.28;1760474;80;21541;-54
2022/01/23 20:52:05;;;;;;;;;;;;;;;2.88;64.40;100965.34;1770001;80;21529;-54
2022/01/23 20:54:30;;;;;;;8.95;6.90;;;;;;;2.91;64.24;100967.09;1759965;80;20421;-54
2022/01/23 20:56:58;;;;;;;10.30;7.08;;;;;;;2.89;64.10;100967.50;1761607;80;22572;-53
2022/01/23 20:59:25;;;;;;;9.25;7.58;;;;;;;2.84;63.84;100971.33;1759938;80;21439;-54
2022/01/23 21:01:52;;;;;;;9.23;7.28;;;;;;;2.77;63.94;100970.86;1755493;80;21492;-53
2022/01/23 21:04:18;;;;;;;13.20;7.35;;;;;;;2.76;64.28;100974.73;1761011;80;21565;-54
2022/01/23 21:06:45;;;;;;;9.65;7.08;;;;;;;2.81;64.18;100978.25;1702130;83;20911;-54
2022/01/23 21:09:13;;;;;;;12.03;7.17;;;;;;;2.81;64.00;100978.25;1766729;80;21426;-54
2022/01/23 21:11:39;;;;;;;9.40;6.67;;;;;;;2.87;63.74;100981.77;1702465;83;21519;-53
2022/01/23 21:16:50;;;;;;;10.95;7.03;;;;;;;2.71;64.33;100983.75;1761332;80;21528;-54
2022/01/23 21:40:52;;;;;;;9.20;6.62;;;;;;;2.74;64.32;100989.00;1762675;80;21009;-53
2022/01/23 21:43:18;;;;;;;9.98;7.20;;;;;;;2.72;64.05;100986.81;1752443;80;21434;-54
2022/01/23 21:45:45;;;;;;;8.58;6.47;;;;;;;2.73;64.25;100987.23;1760036;80;21439;-54
2022/01/23 21:48:12;;;;;;;7.50;6.25;;;;;;;2.59;64.44;100985.80;1759135;80;26331;-54
2022/01/23 21:50:40;;;;;;;8.88;6.87;;;;;;;2.56;64.70;100982.30;1754932;80;21427;-54
2022/01/23 21:53:07;;;;;;;10.38;6.80;;;;;;;2.71;64.18;100979.86;1760224;80;21039;-54
2022/01/23 21:55:33;;;;;;;8.25;6.05;;;;;;;2.66;63.95;100986.75;1758368;80;20970;-54
2022/01/23 21:58:00;;;;;;;8.18;6.17;;;;;;;2.78;64.13;100993.80;1754484;80;21510;-54
2022/01/23 22:00:26;;;;;;;10.70;7.25;;;;;;;2.82;64.19;100995.56;1754842;80;22394;-54
2022/01/23 22:02:52;;;;;;;11.05;6.67;;;;;;;2.75;64.13;100998.95;1770231;80;21438;-54
2022/01/23 22:05:19;;;;;;;10.18;7.00;;;;;;;2.64;63.93;101001.45;1763531;80;21060;-54
2022/01/23 22:07:45;;;;;;;8.83;6.90;;;;;;;2.57;63.99;100991.41;1756812;80;21441;-53
2022/01/23 22:18:15;;;;;;;9.58;6.75;;;;;;;2.46;64.19;101007.28;1746436;80;20882;-54
2022/01/23 22:20:44;;;;;;;9.80;6.37;;;;;;;2.53;63.74;101014.30;1756189;80;21480;-54
2022/01/23 22:23:21;;;;;;;9.73;6.45;;;;;;;2.40;63.80;101013.70;1761214;80;21571;-54
2022/01/23 22:28:29;;;;;;;10.25;5.85;;;;;;;2.26;63.37;101025.19;1762771;80;21414;-54
2022/01/23 22:30:56;;;;;;;9.75;5.92;;;;;;;2.19;63.13;101033.34;1768869;80;21529;-54
2022/01/23 22:33:24;;;;;;;10.50;6.00;;;;;;;2.25;63.34;101036.44;1753147;80;21442;-54
2022/01/23 22:35:52;;;;;;;6.35;5.60;;;;;;;2.26;63.10;101041.66;1758948;80;21491;-54
2022/01/23 22:38:23;;;;;;;9.45;6.45;;;;;;;2.30;62.99;101032.19;1761270;80;22576;-54
2022/01/23 22:40:47;;;;;;;9.25;6.33;;;;;;;2.33;63.30;101045.19;1757779;80;21491;-54
2022/01/23 22:43:19;;;;;;;8.68;5.55;;;;;;;2.34;63.32;101046.52;1754584;80;21599;-54
2022/01/23 22:48:27;;;;;;;7.20;5.17;;;;;;;2.41;63.03;101053.97;1750938;80;21441;-53
2022/01/23 22:50:53;;;;;;;7.00;5.42;;;;;;;2.47;62.72;101046.69;1758756;80;21451;-53
2022/01/23 22:53:20;;;;;;;8.20;5.47;;;;;;;2.51;62.91;101048.47;1761191;80;21394;-53
2022/01/23 22:55:46;;;;;;;8.65;5.72;;;;;;;2.65;62.78;101045.59;1768111;80;20974;-53
2022/01/23 22:58:13;;;;;;;6.83;5.22;;;;;;;2.53;62.57;101041.56;1764810;80;21443;-52
2022/01/23 23:00:44;;;;;;;6.85;4.85;;;;;;;2.49;62.66;101041.08;1759407;80;21588;-53
2022/01/23 23:03:14;;;;;;;6.70;5.12;;;;;;;2.40;61.48;101037.94;1762953;80;22281;-53
2022/01/23 23:05:42;;;;;;;6.87;4.67;;;;;;;2.35;61.88;101036.99;1750945;80;21489;-53
2022/01/23 23:08:08;;;;;;;;;;;;;;;2.37;62.02;101039.61;1762030;80;21552;-53
2022/01/23 23:10:41;;;;;;;4.78;4.00;;;;;;;2.38;61.79;101045.27;1759972;80;20443;-55
2022/01/23 23:13:04;;;;;;;6.00;4.45;;;;;;;2.34;61.75;101054.30;1761789;80;20962;-55
2022/01/23 23:15:37;;;;;;;7.47;5.20;;;;;;;2.37;62.07;101044.38;1762884;79;22344;-54
2022/01/23 23:18:01;;;;;;;5.65;4.33;;;;;;;2.38;61.58;101049.16;1758425;80;21564;-53
2022/01/23 23:20:31;;;;;;;5.35;4.85;;;;;;;2.41;62.16;101056.97;1755888;80;21386;-53
2022/01/23 23:22:56;;;;;;;7.17;5.00;;;;;;;2.40;61.81;101048.31;1763304;80;21363;-53
2022/01/23 23:25:22;;;;;;;6.55;4.90;;;;;;;2.45;62.19;101049.26;1761231;80;21358;-53
2022/01/23 23:27:49;;;;;;;6.67;5.10;;;;;;;2.46;61.97;101042.33;1764096;80;21561;-53
2022/01/23 23:30:16;;;;;;;6.15;4.58;;;;;;;2.50;62.31;101046.27;1764999;80;21483;-53
2022/01/23 23:32:43;;;;;;;6.08;4.90;;;;;;;2.49;62.06;101040.65;1760013;80;21429;-53
2022/01/23 23:35:11;;;;;;;4.60;4.08;;;;;;;2.45;61.88;101050.95;1758695;80;21466;-53
2022/01/23 23:37:37;;;;;;;7.22;4.83;;;;;;;2.44;61.79;101053.98;1751655;80;20950;-54
2022/01/23 23:40:13;;;;;;;5.90;4.50;;;;;;;2.42;61.79;101050.94;1768345;80;22337;-54
2022/01/23 23:42:59;;;;;;;4.90;4.40;;;;;;;2.44;61.69;101059.62;1722102;82;21487;-53
2022/01/23 23:45:18;;;;;;;5.35;4.22;;;;;;;2.35;61.62;101053.86;1678553;83;21374;-53
2022/01/23 23:47:45;;;;;;;;;;;;;;;2.36;61.82;101054.77;1723917;82;21447;-53
2022/01/23 23:50:12;;;;;;;5.83;3.65;;;;;;;2.32;60.85;101060.33;1711144;82;20445;-53
2022/01/23 23:55:07;;;;;;;5.95;3.83;;;;;;;2.25;61.12;101064.55;1764665;80;21333;-53
2022/01/23 23:57:34;;;;;;;7.00;4.45;;;;;;;2.27;61.22;101062.84;1768818;80;21437;-53
